createdAt,value
2019-02-21T00:02:17.774Z,7.30
2019-02-21T00:05:06.606Z,7.40
2019-02-21T00:07:54.578Z,7.30
2019-02-21T00:10:42.767Z,7.30
2019-02-21T00:13:30.668Z,7.30
2019-02-21T00:16:18.610Z,7.30
2019-02-21T00:19:06.167Z,7.20
2019-02-21T00:21:54.178Z,7.10
2019-02-21T00:24:41.911Z,7.00
2019-02-21T00:27:29.750Z,6.90
2019-02-21T00:30:17.969Z,6.90
2019-02-21T00:33:05.762Z,6.80
2019-02-21T00:35:53.439Z,6.80
2019-02-21T00:38:41.527Z,6.70
2019-02-21T00:41:29.460Z,6.60
2019-02-21T00:44:17.635Z,6.60
2019-02-21T00:47:05.734Z,6.50
2019-02-21T00:49:53.378Z,6.40
2019-02-21T00:52:41.650Z,6.40
2019-02-21T00:55:29.798Z,6.30
2019-02-21T00:58:17.797Z,6.30
2019-02-21T01:01:05.631Z,6.20
2019-02-21T01:03:53.533Z,6.10
2019-02-21T01:06:41.593Z,6.10
2019-02-21T01:09:29.468Z,6.00
2019-02-21T01:12:17.326Z,6.00
2019-02-21T01:15:24.414Z,5.90
2019-02-21T01:18:12.159Z,5.90
2019-02-21T01:21:00.793Z,5.80
2019-02-21T01:23:48.639Z,5.80
2019-02-21T01:26:36.747Z,5.80
2019-02-21T01:29:24.847Z,5.70
2019-02-21T01:32:12.783Z,5.70
2019-02-21T01:35:00.486Z,5.70
2019-02-21T01:37:48.344Z,5.70
2019-02-21T01:40:36.191Z,5.70
2019-02-21T01:43:23.829Z,5.70
2019-02-21T01:46:11.894Z,5.60
2019-02-21T01:48:59.593Z,5.60
2019-02-21T01:51:47.490Z,5.70
2019-02-21T01:54:35.854Z,5.70
2019-02-21T01:57:23.931Z,5.70
2019-02-21T02:00:12.563Z,5.70
2019-02-21T02:03:00.499Z,5.70
2019-02-21T02:05:48.540Z,5.70
2019-02-21T02:08:36.919Z,5.80
2019-02-21T02:11:24.998Z,5.70
2019-02-21T02:14:13.415Z,5.70
2019-02-21T02:17:01.094Z,5.70
2019-02-21T02:19:49.066Z,5.70
2019-02-21T02:22:36.999Z,5.70
2019-02-21T02:25:24.952Z,5.70
2019-02-21T02:28:17.595Z,5.70
2019-02-21T02:31:05.479Z,5.60
2019-02-21T02:33:54.075Z,5.60
2019-02-21T02:36:41.982Z,5.60
2019-02-21T02:39:29.608Z,5.60
2019-02-21T02:42:17.636Z,5.60
2019-02-21T02:45:07.407Z,5.50
2019-02-21T02:47:55.818Z,5.50
2019-02-21T02:50:43.870Z,5.50
2019-02-21T02:53:32.374Z,5.50
2019-02-21T02:56:19.974Z,5.50
2019-02-21T02:59:07.765Z,5.50
2019-02-21T03:01:55.902Z,5.50
2019-02-21T03:04:43.741Z,5.50
2019-02-21T03:07:31.587Z,5.60
2019-02-21T03:10:19.027Z,5.60
2019-02-21T03:13:07.153Z,5.70
2019-02-21T03:15:54.879Z,5.70
2019-02-21T03:18:43.026Z,5.80
2019-02-21T03:21:31.218Z,5.80
2019-02-21T03:24:19.489Z,5.90
2019-02-21T03:27:07.957Z,5.90
2019-02-21T03:29:55.644Z,6.00
2019-02-21T03:32:43.529Z,6.00
2019-02-21T03:35:31.170Z,6.00
2019-02-21T03:38:19.027Z,6.10
2019-02-21T03:41:06.644Z,6.10
2019-02-21T03:43:54.440Z,6.10
2019-02-21T03:46:42.274Z,6.20
2019-02-21T03:49:30.399Z,6.20
2019-02-21T03:52:18.721Z,6.20
2019-02-21T03:55:07.643Z,6.20
2019-02-21T03:57:55.871Z,6.20
2019-02-21T04:00:43.975Z,6.20
2019-02-21T04:03:31.775Z,6.20
2019-02-21T04:06:20.258Z,6.20
2019-02-21T04:09:08.783Z,6.20
2019-02-21T04:11:56.542Z,6.10
2019-02-21T04:14:44.152Z,6.10
2019-02-21T04:17:32.354Z,6.00
2019-02-21T04:20:20.231Z,6.00
2019-02-21T04:23:08.020Z,5.90
2019-02-21T04:25:55.963Z,5.80
2019-02-21T04:28:45.809Z,5.70
2019-02-21T04:31:32.798Z,5.70
2019-02-21T04:34:20.446Z,5.70
2019-02-21T04:37:08.748Z,5.60
2019-02-21T04:39:56.571Z,5.60
2019-02-21T04:42:44.446Z,5.50
2019-02-21T04:45:32.063Z,5.40
2019-02-21T04:48:19.948Z,5.40
2019-02-21T04:51:27.352Z,5.40
2019-02-21T04:54:15.359Z,5.30
2019-02-21T04:57:03.380Z,5.20
2019-02-21T04:59:51.238Z,5.20
2019-02-21T05:02:39.208Z,5.20
2019-02-21T05:05:27.446Z,5.10
2019-02-21T05:08:15.259Z,5.20
2019-02-21T05:11:03.023Z,5.10
2019-02-21T05:13:50.667Z,5.10
2019-02-21T05:16:39.070Z,5.10
2019-02-21T05:19:27.401Z,5.20
2019-02-21T05:22:14.983Z,5.20
2019-02-21T05:25:02.813Z,5.20
2019-02-21T05:27:52.226Z,5.30
2019-02-21T05:30:39.954Z,5.30
2019-02-21T05:33:38.390Z,5.30
2019-02-21T05:36:33.585Z,5.30
2019-02-21T05:39:35.158Z,5.30
2019-02-21T05:42:29.867Z,5.40
2019-02-21T05:45:34.953Z,5.30
2019-02-21T05:48:24.777Z,5.30
2019-02-21T05:51:13.876Z,5.40
2019-02-21T05:54:19.460Z,5.40
2019-02-21T05:57:25.974Z,5.40
2019-02-21T06:00:30.867Z,5.40
2019-02-21T06:03:29.183Z,5.40
2019-02-21T06:06:18.959Z,5.40
2019-02-21T06:09:09.503Z,5.50
2019-02-21T06:12:04.835Z,5.50
2019-02-21T06:14:54.259Z,5.50
2019-02-21T06:17:43.589Z,5.50
2019-02-21T06:20:33.897Z,5.50
2019-02-21T06:23:29.266Z,5.50
2019-02-21T06:26:18.699Z,5.40
2019-02-21T06:29:09.822Z,5.40
2019-02-21T06:31:57.507Z,5.40
2019-02-21T06:34:45.466Z,5.40
2019-02-21T06:37:33.382Z,5.40
2019-02-21T06:40:21.287Z,5.40
2019-02-21T06:43:09.254Z,5.40
2019-02-21T06:45:58.109Z,5.30
2019-02-21T06:48:46.301Z,5.40
2019-02-21T06:51:34.094Z,5.40
2019-02-21T06:54:22.633Z,5.40
2019-02-21T06:57:10.783Z,5.40
2019-02-21T06:59:58.694Z,5.40
2019-02-21T07:02:46.698Z,5.40
2019-02-21T07:05:36.858Z,5.50
2019-02-21T07:08:25.182Z,5.50
2019-02-21T07:11:13.458Z,5.60
2019-02-21T07:14:01.847Z,5.60
2019-02-21T07:16:49.482Z,5.70
2019-02-21T07:19:37.596Z,5.80
2019-02-21T07:22:25.726Z,5.90
2019-02-21T07:25:17.999Z,6.00
2019-02-21T07:28:11.744Z,6.20
2019-02-21T07:30:54.951Z,6.50
2019-02-21T07:33:42.994Z,6.70
2019-02-21T07:36:31.078Z,6.90
2019-02-21T07:39:20.845Z,7.10
2019-02-21T07:42:07.632Z,7.20
2019-02-21T07:44:55.621Z,7.30
2019-02-21T07:47:43.827Z,7.40
2019-02-21T07:50:32.574Z,7.40
2019-02-21T07:53:20.075Z,7.50
2019-02-21T07:56:07.868Z,7.50
2019-02-21T07:58:57.670Z,7.60
2019-02-21T10:01:35.919Z,9.90
2019-02-21T10:04:31.894Z,10.90
2019-02-21T10:07:11.090Z,10.90
2019-02-21T10:10:00.803Z,10.90
2019-02-21T10:12:47.508Z,11.00
2019-02-21T10:15:34.983Z,11.10
2019-02-21T10:18:22.411Z,11.30
2019-02-21T10:21:09.674Z,11.30
2019-02-21T10:23:56.945Z,11.30
2019-02-21T10:26:44.599Z,11.30
2019-02-21T10:29:31.870Z,11.30
2019-02-21T10:32:19.364Z,11.20
2019-02-21T10:35:07.109Z,11.00
2019-02-21T10:37:54.274Z,10.80
2019-02-21T10:40:44.299Z,10.70
2019-02-21T10:43:31.267Z,10.70
2019-02-21T10:46:18.843Z,10.80
2019-02-21T10:49:05.953Z,10.80
2019-02-21T10:51:52.800Z,11.50
2019-02-21T10:54:40.311Z,12.70
2019-02-21T10:57:27.442Z,13.50
2019-02-21T11:00:26.268Z,14.00
2019-02-21T11:03:13.795Z,14.60
2019-02-21T11:06:00.862Z,14.50
2019-02-21T11:08:48.004Z,14.20
2019-02-21T11:11:35.119Z,14.10
2019-02-21T11:14:22.524Z,13.90
2019-02-21T11:17:09.924Z,14.50
2019-02-21T11:19:56.752Z,15.10
2019-02-21T11:22:43.914Z,15.20
2019-02-21T11:25:31.148Z,14.70
2019-02-21T11:28:18.222Z,14.40
2019-02-21T11:31:06.057Z,13.80
2019-02-21T11:33:52.970Z,13.70
2019-02-21T11:36:40.542Z,13.50
2019-02-21T11:39:28.360Z,13.50
2019-02-21T11:42:15.162Z,13.30
2019-02-21T11:45:02.306Z,13.40
2019-02-21T11:47:50.191Z,13.60
2019-02-21T11:50:37.459Z,13.50
2019-02-21T11:53:24.245Z,13.40
2019-02-21T11:56:31.023Z,13.40
2019-02-21T11:59:19.190Z,13.50
2019-02-21T12:02:07.290Z,13.30
2019-02-21T12:04:36.736Z,13.10
2019-02-21T12:07:06.526Z,13.00
2019-02-21T12:09:35.830Z,13.00
2019-02-21T12:12:04.193Z,13.00
2019-02-21T12:14:32.502Z,13.10
2019-02-21T12:17:02.212Z,13.20
2019-02-21T12:19:31.032Z,13.20
2019-02-21T12:22:00.105Z,13.30
2019-02-21T12:24:28.835Z,13.00
2019-02-21T12:26:58.154Z,12.80
2019-02-21T12:29:27.263Z,12.80
2019-02-21T12:31:57.739Z,12.70
2019-02-21T12:34:27.363Z,12.80
2019-02-21T12:36:57.030Z,12.70
2019-02-21T12:39:26.949Z,12.50
2019-02-21T12:41:56.706Z,12.50
2019-02-21T12:44:26.641Z,12.60
2019-02-21T12:46:56.521Z,12.90
2019-02-21T12:49:25.478Z,13.10
2019-02-21T12:51:54.292Z,13.40
2019-02-21T12:54:24.732Z,13.60
2019-02-21T12:56:54.885Z,13.70
2019-02-21T12:59:24.712Z,13.60
2019-02-21T13:01:53.618Z,13.90
2019-02-21T13:04:22.546Z,14.10
2019-02-21T13:06:51.459Z,14.30
2019-02-21T13:09:20.287Z,14.00
2019-02-21T13:11:49.290Z,13.90
2019-02-21T13:14:18.055Z,13.60
2019-02-21T13:16:46.812Z,13.50
2019-02-21T13:19:15.810Z,13.40
2019-02-21T13:21:44.591Z,13.50
2019-02-21T13:24:13.418Z,13.40
2019-02-21T13:26:42.421Z,13.40
2019-02-21T13:29:11.250Z,12.90
2019-02-21T13:31:40.026Z,13.10
2019-02-21T13:34:08.882Z,13.10
2019-02-21T13:36:37.605Z,13.10
2019-02-21T13:39:07.157Z,12.90
2019-02-21T13:41:36.066Z,12.90
2019-02-21T13:44:04.833Z,13.00
2019-02-21T13:46:37.461Z,13.10
2019-02-21T13:49:04.340Z,13.10
2019-02-21T13:51:33.442Z,13.10
2019-02-21T13:54:02.345Z,13.10
2019-02-21T13:56:31.133Z,13.00
2019-02-21T13:59:00.224Z,13.00
2019-02-21T14:01:28.987Z,13.00
2019-02-21T14:03:58.070Z,13.00
2019-02-21T14:06:26.819Z,13.00
2019-02-21T14:08:55.726Z,13.00
2019-02-21T14:11:24.659Z,13.00
2019-02-21T14:13:53.576Z,13.10
2019-02-21T14:16:22.344Z,13.10
2019-02-21T14:18:51.178Z,13.20
2019-02-21T14:21:19.944Z,13.10
2019-02-21T14:23:48.919Z,13.00
2019-02-21T14:26:17.714Z,12.80
2019-02-21T14:28:46.652Z,12.70
2019-02-21T14:31:15.281Z,12.70
2019-02-21T14:33:44.159Z,12.70
2019-02-21T14:36:16.791Z,12.70
2019-02-21T14:38:43.387Z,12.80
2019-02-21T14:41:12.329Z,12.90
2019-02-21T14:43:41.107Z,12.90
2019-02-21T14:46:09.847Z,13.00
2019-02-21T14:48:38.611Z,13.00
2019-02-21T14:51:07.727Z,13.10
2019-02-21T14:53:36.418Z,13.10
2019-02-21T14:56:05.397Z,13.10
2019-02-21T14:58:34.137Z,13.00
2019-02-21T15:01:03.115Z,13.00
2019-02-21T15:03:32.009Z,13.00
2019-02-21T15:06:00.866Z,12.90
2019-02-21T15:08:29.703Z,12.80
2019-02-21T15:10:58.651Z,12.70
2019-02-21T15:13:27.435Z,12.60
2019-02-21T15:15:56.437Z,12.60
2019-02-21T15:18:25.390Z,12.60
2019-02-21T15:20:54.387Z,12.60
2019-02-21T15:23:30.159Z,12.60
2019-02-21T15:25:59.122Z,12.50
2019-02-21T15:28:28.297Z,12.50
2019-02-21T15:30:57.223Z,12.50
2019-02-21T15:33:26.081Z,12.40
2019-02-21T15:35:54.946Z,12.40
2019-02-21T15:38:23.822Z,12.40
2019-02-21T15:40:52.660Z,12.40
2019-02-21T15:43:21.532Z,12.40
2019-02-21T15:45:50.230Z,12.40
2019-02-21T15:48:19.082Z,12.30
2019-02-21T15:50:47.936Z,12.10
2019-02-21T15:53:16.843Z,12.00
2019-02-21T15:55:45.627Z,11.90
2019-02-21T15:58:14.625Z,11.90
2019-02-21T16:00:43.897Z,11.80
2019-02-21T16:03:12.758Z,11.80
2019-02-21T16:05:41.635Z,11.80
2019-02-21T16:08:10.533Z,11.70
2019-02-21T16:10:39.966Z,11.70
2019-02-21T16:13:09.491Z,11.60
2019-02-21T16:15:38.507Z,11.60
2019-02-21T16:18:07.755Z,11.50
2019-02-21T16:20:36.539Z,11.50
2019-02-21T16:23:05.214Z,11.50
2019-02-21T16:25:34.010Z,11.40
2019-02-21T16:28:02.756Z,11.40
2019-02-21T16:30:31.501Z,11.40
2019-02-21T16:33:00.419Z,11.40
2019-02-21T16:35:29.273Z,11.40
2019-02-21T16:37:58.100Z,11.30
2019-02-21T16:40:26.990Z,11.30
2019-02-21T16:42:55.746Z,11.40
2019-02-21T16:45:24.629Z,11.30
2019-02-21T16:47:53.383Z,11.30
2019-02-21T16:50:29.647Z,11.20
2019-02-21T16:53:11.911Z,11.20
2019-02-21T16:55:40.915Z,11.20
2019-02-21T16:58:09.875Z,11.20
2019-02-21T17:00:50.411Z,11.10
2019-02-21T17:03:09.469Z,11.10
2019-02-21T17:05:38.369Z,11.10
2019-02-21T17:08:07.361Z,11.10
2019-02-21T17:10:36.288Z,11.10
2019-02-21T17:13:05.301Z,11.00
2019-02-21T17:15:34.151Z,11.00
2019-02-21T17:18:03.814Z,11.00
2019-02-21T17:20:33.366Z,11.00
2019-02-21T17:23:02.200Z,11.00
2019-02-21T17:25:31.024Z,11.00
2019-02-21T17:27:59.957Z,11.00
2019-02-21T17:30:28.856Z,10.90
2019-02-21T17:32:57.950Z,10.90
2019-02-21T17:35:26.796Z,10.90
2019-02-21T17:37:55.749Z,10.90
2019-02-21T17:40:24.884Z,10.90
2019-02-21T17:42:53.692Z,10.90
2019-02-21T17:45:23.055Z,10.90
2019-02-21T17:47:52.173Z,10.90
2019-02-21T17:50:21.254Z,10.90
2019-02-21T17:52:50.307Z,10.90
2019-02-21T17:55:19.285Z,10.90
2019-02-21T17:57:48.131Z,10.90
2019-02-21T18:00:22.575Z,10.90
2019-02-21T18:02:51.752Z,10.90
2019-02-21T18:05:20.731Z,11.00
2019-02-21T18:07:49.902Z,11.00
2019-02-21T18:10:18.614Z,11.00
2019-02-21T18:12:47.623Z,11.00
2019-02-21T18:15:16.999Z,11.00
2019-02-21T18:17:47.621Z,11.00
2019-02-21T18:20:16.446Z,11.00
2019-02-21T18:22:45.492Z,11.00
2019-02-21T18:25:18.788Z,11.10
2019-02-21T18:27:47.738Z,11.00
2019-02-21T18:30:17.030Z,11.00
2019-02-21T18:32:45.952Z,11.00
2019-02-21T18:35:14.993Z,11.00
2019-02-21T18:37:47.375Z,11.00
2019-02-21T18:40:17.737Z,11.00
2019-02-21T18:42:47.038Z,11.00
2019-02-21T18:45:16.285Z,11.00
2019-02-21T18:47:45.270Z,11.00
2019-02-21T18:50:14.611Z,11.00
2019-02-21T18:52:43.333Z,10.90
2019-02-21T18:55:12.100Z,10.90
2019-02-21T18:57:41.059Z,10.90
2019-02-21T19:00:11.544Z,10.80
2019-02-21T19:02:40.478Z,10.80
2019-02-21T19:05:09.364Z,10.80
2019-02-21T19:07:38.108Z,10.80
2019-02-21T19:10:08.789Z,10.80
2019-02-21T19:12:37.582Z,10.80
2019-02-21T19:15:07.448Z,10.80
2019-02-21T19:17:36.314Z,10.80
2019-02-21T19:20:06.635Z,10.80
2019-02-21T19:22:35.653Z,10.80
2019-02-21T19:25:05.750Z,10.80
2019-02-21T19:27:37.175Z,10.80
2019-02-21T19:30:25.757Z,10.80
2019-02-21T19:32:54.536Z,10.80
2019-02-21T19:35:23.319Z,10.70
2019-02-21T19:37:52.182Z,10.60
2019-02-21T19:40:20.968Z,10.60
2019-02-21T19:42:49.729Z,10.50
2019-02-21T19:45:18.531Z,10.50
2019-02-21T19:47:47.526Z,10.50
2019-02-21T19:50:16.511Z,10.50
2019-02-21T19:52:45.234Z,10.60
2019-02-21T19:55:14.024Z,10.50
2019-02-21T19:57:42.856Z,10.40
2019-02-21T20:00:13.238Z,10.30
2019-02-21T20:02:42.090Z,10.30
2019-02-21T20:05:11.039Z,10.20
2019-02-21T20:08:08.196Z,10.20
2019-02-21T20:10:29.711Z,10.20
2019-02-21T20:13:00.059Z,10.20
2019-02-21T20:15:28.931Z,10.20
2019-02-21T20:17:57.786Z,10.20
2019-02-21T20:20:27.121Z,10.20
2019-02-21T20:22:55.943Z,10.20
2019-02-21T20:25:24.806Z,10.20
2019-02-21T20:27:53.534Z,10.20
2019-02-21T20:30:22.314Z,10.20
2019-02-21T20:32:51.194Z,10.10
2019-02-21T20:35:20.084Z,10.10
2019-02-21T20:37:49.048Z,10.00
2019-02-21T20:40:18.076Z,10.00
2019-02-21T20:42:46.769Z,9.90
2019-02-21T20:45:15.458Z,9.90
2019-02-21T20:47:44.278Z,9.90
2019-02-21T20:50:13.277Z,9.90
2019-02-21T20:52:42.144Z,9.80
2019-02-21T20:55:11.412Z,9.80
2019-02-21T20:57:40.418Z,9.80
2019-02-21T21:00:10.475Z,9.80
2019-02-21T21:02:39.275Z,9.70
2019-02-21T21:05:08.390Z,9.70
2019-02-21T21:07:37.171Z,9.70
2019-02-21T21:10:09.319Z,9.60
2019-02-21T21:12:38.124Z,9.60
2019-02-21T21:15:09.447Z,9.60
2019-02-21T21:17:37.968Z,9.50
2019-02-21T21:20:15.986Z,9.50
2019-02-21T21:22:38.507Z,9.50
2019-02-21T21:25:09.047Z,9.50
2019-02-21T21:27:37.951Z,9.50
2019-02-21T21:30:08.666Z,9.50
2019-02-21T21:32:37.395Z,9.50
2019-02-21T21:35:06.185Z,9.50
2019-02-21T21:37:35.087Z,9.50
2019-02-21T21:40:05.309Z,9.50
2019-02-21T21:42:34.151Z,9.50
2019-02-21T21:45:03.239Z,9.50
2019-02-21T21:47:32.210Z,9.50
2019-02-21T21:50:01.039Z,9.50
2019-02-21T21:52:29.747Z,9.50
2019-02-21T21:54:59.954Z,9.50
2019-02-21T21:57:29.022Z,9.50
2019-02-21T21:59:57.739Z,9.50
2019-02-21T22:02:26.581Z,9.50
2019-02-21T22:04:59.482Z,9.40
2019-02-21T22:07:28.375Z,9.50
2019-02-21T22:09:57.197Z,9.50
2019-02-21T22:12:26.113Z,9.40
2019-02-21T22:14:54.832Z,9.40
2019-02-21T22:17:23.478Z,9.40
2019-02-21T22:19:55.210Z,9.40
2019-02-21T22:22:24.249Z,9.40
2019-02-21T22:24:53.125Z,9.40
2019-02-21T22:27:24.683Z,9.40
2019-02-21T22:29:52.542Z,9.40
2019-02-21T22:32:21.271Z,9.40
2019-02-21T22:34:49.880Z,9.50
2019-02-21T22:37:18.521Z,9.40
2019-02-21T22:39:47.361Z,9.40
2019-02-21T22:42:16.521Z,9.40
2019-02-21T22:44:45.482Z,9.40
2019-02-21T22:47:14.478Z,9.40
2019-02-21T22:49:43.331Z,9.40
2019-02-21T22:52:12.070Z,9.40
2019-02-21T22:54:40.891Z,9.40
2019-02-21T22:57:09.692Z,9.40
2019-02-21T22:59:38.641Z,9.40
2019-02-21T23:02:07.334Z,9.40
2019-02-21T23:04:37.530Z,9.40
2019-02-21T23:07:07.766Z,9.40
2019-02-21T23:09:36.508Z,9.40
2019-02-21T23:12:05.442Z,9.30
2019-02-21T23:14:34.183Z,9.30
2019-02-21T23:17:03.613Z,9.30
2019-02-21T23:19:32.440Z,9.30
2019-02-21T23:22:01.139Z,9.30
2019-02-21T23:24:30.136Z,9.30
2019-02-21T23:26:58.809Z,9.30
2019-02-21T23:29:27.848Z,9.30
2019-02-21T23:31:56.749Z,9.30
2019-02-21T23:34:39.272Z,9.30
2019-02-21T23:37:07.986Z,9.30
2019-02-21T23:39:38.611Z,9.30
2019-02-21T23:42:07.417Z,9.30
2019-02-21T23:44:36.172Z,9.30
2019-02-21T23:47:05.015Z,9.20
2019-02-21T23:49:33.947Z,9.30
2019-02-21T23:52:02.814Z,9.30
2019-02-21T23:54:31.593Z,9.30
2019-02-21T23:57:00.418Z,9.30
2019-02-21T23:59:29.146Z,9.20
